Time;durP1;ratioP1;P1;durP2;ratioP2;P2;SDS_P1;SDS_P2;PMS_P1;PMS_P2;Temp;Humidity;BMP_temperature;BMP_pressure;BME280_temperature;BME280_humidity;BME280_pressure;Samples;Min_cycle;Max_cycle;Signal;HPM_P1;HPM_P2
2022/10/08 00:00:14;;;;;;;2.00;0.90;;;;;;;;;;4490615;28;20042;-58
2022/10/08 00:02:26;;;;;;;2.05;0.98;;;;;;;;;;4500470;28;20073;-59
2022/10/08 00:04:36;;;;;;;1.15;0.95;;;;;;;;;;4492484;28;20030;-59
2022/10/08 00:06:46;;;;;;;1.10;0.77;;;;;;;;;;4490004;28;33837;-58
2022/10/08 00:09:01;;;;;;;1.98;0.90;;;;;;;;;;4490371;28;20038;-58
2022/10/08 00:11:15;;;;;;;1.23;0.88;;;;;;;;;;4489780;28;20047;-59
2022/10/08 00:13:28;;;;;;;1.20;0.80;;;;;;;;;;4494662;28;20145;-58
2022/10/08 00:15:39;;;;;;;1.67;0.90;;;;;;;;;;4488513;28;20041;-58
2022/10/08 00:17:50;;;;;;;1.65;1.00;;;;;;;;;;4490642;28;20590;-58
2022/10/08 00:20:00;;;;;;;2.25;1.00;;;;;;;;;;4488625;28;38885;-58
2022/10/08 00:22:10;;;;;;;1.58;1.10;;;;;;;;;;4490415;28;20088;-58
2022/10/08 00:24:22;;;;;;;2.10;1.00;;;;;;;;;;4490636;28;20045;-58
2022/10/08 00:26:34;;;;;;;2.17;1.00;;;;;;;;;;4491818;28;20038;-58
2022/10/08 00:28:45;;;;;;;1.35;0.80;;;;;;;;;;4489378;28;20149;-58
2022/10/08 00:30:56;;;;;;;1.50;0.90;;;;;;;;;;4490799;28;20038;-58
2022/10/08 00:33:07;;;;;;;1.67;1.10;;;;;;;;;;4492106;28;20035;-58
2022/10/08 00:35:18;;;;;;;2.03;1.10;;;;;;;;;;4495787;28;20113;-58
2022/10/08 00:37:28;;;;;;;1.40;0.93;;;;;;;;;;4492827;28;25013;-59
2022/10/08 00:39:39;;;;;;;1.40;0.82;;;;;;;;;;4501978;28;20045;-58
2022/10/08 00:41:51;;;;;;;1.88;1.00;;;;;;;;;;4495000;28;20026;-58
2022/10/08 00:44:22;;;;;;;2.58;0.95;;;;;;;;;;4495385;28;20042;-59
2022/10/08 00:46:36;;;;;;;1.90;1.17;;;;;;;;;;4493515;28;20571;-58
2022/10/08 00:48:47;;;;;;;1.52;0.95;;;;;;;;;;4502118;28;20100;-58
2022/10/08 00:50:57;;;;;;;1.77;0.77;;;;;;;;;;4493613;28;20034;-59
2022/10/08 00:53:08;;;;;;;1.35;0.73;;;;;;;;;;4492620;28;20116;-59
2022/10/08 00:55:21;;;;;;;1.73;0.90;;;;;;;;;;4497533;28;21070;-58
2022/10/08 00:57:33;;;;;;;3.50;0.90;;;;;;;;;;4494287;28;20116;-58
2022/10/08 00:59:44;;;;;;;1.92;0.80;;;;;;;;;;4493639;28;20030;-59
2022/10/08 01:01:54;;;;;;;1.63;0.73;;;;;;;;;;4493138;28;20308;-58
2022/10/08 01:04:05;;;;;;;2.17;0.88;;;;;;;;;;4492648;28;20371;-58
2022/10/08 01:06:30;;;;;;;1.27;0.70;;;;;;;;;;4496405;28;20092;-58
2022/10/08 01:09:18;;;;;;;1.10;0.85;;;;;;;;;;4493014;28;21477;-60
2022/10/08 01:11:41;;;;;;;1.20;0.77;;;;;;;;;;4449664;28;20051;-59
2022/10/08 01:14:08;;;;;;;1.98;1.00;;;;;;;;;;4489474;28;20740;-59
2022/10/08 01:16:18;;;;;;;1.50;0.70;;;;;;;;;;4497438;28;20544;-59
2022/10/08 01:18:47;;;;;;;2.08;1.00;;;;;;;;;;4492896;28;20043;-59
2022/10/08 01:21:08;;;;;;;2.45;0.90;;;;;;;;;;4497768;28;20042;-58
2022/10/08 01:23:37;;;;;;;1.52;0.80;;;;;;;;;;4492493;28;20543;-58
2022/10/08 01:25:54;;;;;;;2.08;0.98;;;;;;;;;;4492279;28;20088;-59
2022/10/08 01:28:16;;;;;;;1.92;0.90;;;;;;;;;;4492658;28;20891;-58
2022/10/08 01:30:26;;;;;;;1.50;0.70;;;;;;;;;;4497229;28;20038;-58
2022/10/08 01:32:42;;;;;;;2.15;0.95;;;;;;;;;;4492463;28;44742;-58
2022/10/08 01:34:57;;;;;;;1.77;0.98;;;;;;;;;;4492539;28;20536;-59
2022/10/08 01:37:12;;;;;;;1.42;0.70;;;;;;;;;;4492302;28;20044;-59
2022/10/08 01:39:26;;;;;;;2.95;0.90;;;;;;;;;;4495547;28;20085;-59
2022/10/08 01:41:38;;;;;;;1.95;1.00;;;;;;;;;;4497321;28;20100;-59
2022/10/08 01:44:01;;;;;;;6.05;3.78;;;;;;;;;;4479379;28;20042;-59
2022/10/08 01:46:25;;;;;;;4.47;3.47;;;;;;;;;;4495611;28;20041;-58
2022/10/08 01:48:39;;;;;;;5.18;3.85;;;;;;;;;;4500972;28;20033;-59
2022/10/08 01:50:58;;;;;;;1.92;1.63;;;;;;;;;;4493102;28;20042;-59
2022/10/08 01:53:15;;;;;;;1.90;1.10;;;;;;;;;;4493982;28;20101;-59
2022/10/08 01:55:30;;;;;;;2.50;1.75;;;;;;;;;;4484259;28;20198;-58
2022/10/08 01:57:43;;;;;;;3.08;2.45;;;;;;;;;;4473822;28;20250;-58
2022/10/08 01:59:57;;;;;;;4.28;2.72;;;;;;;;;;4491994;28;20661;-59
2022/10/08 02:02:10;;;;;;;3.50;2.20;;;;;;;;;;4496970;28;20045;-58
2022/10/08 02:04:33;;;;;;;3.67;1.90;;;;;;;;;;4493947;28;20053;-59
2022/10/08 02:06:49;;;;;;;3.33;1.85;;;;;;;;;;4492735;28;20399;-58
2022/10/08 02:08:59;;;;;;;2.22;1.45;;;;;;;;;;4493817;28;20137;-58
2022/10/08 02:11:10;;;;;;;3.72;1.70;;;;;;;;;;4491852;28;21261;-59
2022/10/08 02:13:21;;;;;;;2.20;1.23;;;;;;;;;;4492285;28;20169;-59
2022/10/08 02:15:37;;;;;;;2.55;1.65;;;;;;;;;;4491611;28;20077;-58
2022/10/08 02:18:10;;;;;;;2.30;1.73;;;;;;;;;;4500606;28;20049;-58
2022/10/08 02:20:40;;;;;;;2.72;1.70;;;;;;;;;;4493369;28;20085;-58
2022/10/08 02:23:12;;;;;;;3.47;1.50;;;;;;;;;;4491919;28;20038;-59
2022/10/08 02:25:38;;;;;;;2.17;1.10;;;;;;;;;;4484491;28;20047;-59
2022/10/08 02:28:02;;;;;;;2.38;1.00;;;;;;;;;;4501004;28;20112;-58
2022/10/08 02:30:12;;;;;;;2.05;1.00;;;;;;;;;;4492820;28;20080;-58
2022/10/08 02:32:30;;;;;;;2.55;1.00;;;;;;;;;;4491247;28;24917;-58
2022/10/08 02:34:46;;;;;;;2.58;1.02;;;;;;;;;;4489801;28;20200;-58
2022/10/08 02:37:00;;;;;;;2.63;1.05;;;;;;;;;;4493905;28;20049;-59
2022/10/08 02:39:12;;;;;;;1.45;0.90;;;;;;;;;;4491844;28;20037;-59
2022/10/08 02:41:27;;;;;;;3.20;1.85;;;;;;;;;;4490552;28;20038;-59
2022/10/08 02:43:43;;;;;;;1.58;1.00;;;;;;;;;;4491453;28;20048;-58
2022/10/08 02:46:20;;;;;;;1.30;0.90;;;;;;;;;;4496316;28;20129;-58
2022/10/08 02:48:33;;;;;;;1.55;1.13;;;;;;;;;;4479305;28;20050;-59
2022/10/08 02:50:44;;;;;;;1.90;1.00;;;;;;;;;;4492616;28;20048;-59
2022/10/08 02:52:54;;;;;;;1.70;0.80;;;;;;;;;;4473322;28;20042;-59
2022/10/08 02:55:32;;;;;;;1.60;0.80;;;;;;;;;;4491981;28;20043;-59
2022/10/08 02:57:45;;;;;;;1.13;0.80;;;;;;;;;;4488862;28;20046;-60
2022/10/08 02:59:56;;;;;;;2.25;0.77;;;;;;;;;;4492664;28;20273;-58
2022/10/08 03:02:08;;;;;;;2.03;1.08;;;;;;;;;;4484281;28;20049;-59
2022/10/08 03:04:31;;;;;;;1.88;1.05;;;;;;;;;;4496155;28;20033;-59
2022/10/08 03:06:42;;;;;;;1.90;0.90;;;;;;;;;;4491323;28;20105;-59
2022/10/08 03:08:55;;;;;;;1.50;0.90;;;;;;;;;;4500105;28;20077;-59
2022/10/08 03:11:06;;;;;;;0.98;0.70;;;;;;;;;;4482686;28;20033;-59
2022/10/08 03:13:17;;;;;;;1.35;0.80;;;;;;;;;;4475863;28;40276;-59
2022/10/08 03:15:32;;;;;;;1.92;0.93;;;;;;;;;;4493283;28;20125;-59
2022/10/08 03:17:44;;;;;;;2.63;1.00;;;;;;;;;;4492190;28;20822;-58
2022/10/08 03:19:56;;;;;;;2.72;1.10;;;;;;;;;;4505827;28;20040;-58
2022/10/08 03:22:06;;;;;;;2.75;1.08;;;;;;;;;;4494984;28;20045;-59
2022/10/08 03:24:16;;;;;;;1.98;1.20;;;;;;;;;;4491321;28;20037;-59
2022/10/08 03:26:27;;;;;;;2.20;1.38;;;;;;;;;;4490830;28;20595;-58
2022/10/08 03:28:37;;;;;;;2.42;1.00;;;;;;;;;;4491370;28;20337;-59
2022/10/08 03:30:47;;;;;;;2.05;1.08;;;;;;;;;;4490633;28;21253;-59
2022/10/08 03:32:58;;;;;;;2.05;1.02;;;;;;;;;;4488914;28;20096;-59
2022/10/08 03:35:08;;;;;;;1.48;0.80;;;;;;;;;;4490758;28;26081;-59
2022/10/08 03:37:19;;;;;;;1.73;0.98;;;;;;;;;;4492390;28;20049;-58
2022/10/08 03:39:29;;;;;;;2.13;1.08;;;;;;;;;;4493271;28;20080;-59
2022/10/08 03:41:40;;;;;;;2.53;1.10;;;;;;;;;;4488548;28;20531;-59
2022/10/08 03:43:50;;;;;;;1.55;1.05;;;;;;;;;;4499696;28;38155;-59
2022/10/08 03:46:01;;;;;;;1.55;0.90;;;;;;;;;;4490023;28;20031;-59
2022/10/08 03:48:12;;;;;;;1.95;0.98;;;;;;;;;;4489518;28;20590;-59
2022/10/08 03:50:22;;;;;;;1.60;0.85;;;;;;;;;;4491047;28;34809;-59
2022/10/08 03:52:33;;;;;;;2.13;0.90;;;;;;;;;;4492512;28;20357;-58
2022/10/08 03:54:43;;;;;;;0.95;0.60;;;;;;;;;;4489538;28;44849;-58
2022/10/08 03:56:53;;;;;;;1.42;0.70;;;;;;;;;;4489983;28;20045;-58
2022/10/08 03:59:04;;;;;;;2.63;0.88;;;;;;;;;;4491870;28;33625;-58
2022/10/08 04:01:15;;;;;;;2.25;0.80;;;;;;;;;;4489675;28;36942;-59
2022/10/08 04:03:26;;;;;;;1.92;0.73;;;;;;;;;;4490861;28;20038;-59
2022/10/08 04:05:37;;;;;;;0.98;0.65;;;;;;;;;;4490586;28;20092;-59
2022/10/08 04:07:47;;;;;;;1.50;0.75;;;;;;;;;;4491018;28;21228;-59
2022/10/08 04:09:58;;;;;;;2.10;0.85;;;;;;;;;;4492287;28;20957;-59
2022/10/08 04:12:08;;;;;;;2.33;1.02;;;;;;;;;;4490398;28;24937;-59
2022/10/08 04:14:18;;;;;;;1.63;0.98;;;;;;;;;;4494424;28;20122;-59
2022/10/08 04:16:29;;;;;;;2.47;0.93;;;;;;;;;;4477236;28;34920;-59
2022/10/08 04:18:39;;;;;;;1.48;0.70;;;;;;;;;;4474622;28;20509;-59
2022/10/08 04:20:50;;;;;;;2.13;0.90;;;;;;;;;;4490497;28;20048;-58
2022/10/08 04:23:00;;;;;;;2.35;1.10;;;;;;;;;;4489703;28;37970;-59
2022/10/08 04:25:10;;;;;;;2.22;1.00;;;;;;;;;;4490438;28;20042;-59
2022/10/08 04:27:21;;;;;;;1.63;0.90;;;;;;;;;;4490302;28;29624;-59
2022/10/08 04:29:31;;;;;;;1.73;0.80;;;;;;;;;;4491263;28;21084;-59
2022/10/08 04:31:42;;;;;;;1.58;0.80;;;;;;;;;;4492971;28;20085;-59
2022/10/08 04:33:52;;;;;;;1.27;0.73;;;;;;;;;;4490937;28;20074;-58
2022/10/08 04:36:10;;;;;;;0.80;0.60;;;;;;;;;;4490413;28;20308;-59
2022/10/08 04:38:21;;;;;;;1.80;0.80;;;;;;;;;;4488822;28;20098;-58
2022/10/08 04:40:32;;;;;;;1.33;0.80;;;;;;;;;;4489953;28;20072;-58
2022/10/08 04:42:42;;;;;;;1.83;0.80;;;;;;;;;;4489175;28;42459;-58
2022/10/08 04:44:52;;;;;;;2.20;1.00;;;;;;;;;;4498271;28;37990;-59
2022/10/08 04:47:03;;;;;;;1.60;1.05;;;;;;;;;;4492380;28;20034;-58
2022/10/08 04:49:13;;;;;;;1.40;0.80;;;;;;;;;;4489747;28;20073;-59
2022/10/08 04:51:25;;;;;;;1.80;0.90;;;;;;;;;;4491251;28;20050;-59
2022/10/08 04:53:35;;;;;;;1.60;0.80;;;;;;;;;;4490862;28;20069;-59
2022/10/08 04:55:46;;;;;;;3.55;1.88;;;;;;;;;;4490138;28;20044;-59
2022/10/08 04:57:56;;;;;;;4.10;2.53;;;;;;;;;;4489385;28;28837;-58
2022/10/08 05:00:07;;;;;;;1.88;1.10;;;;;;;;;;4490179;28;20036;-59
2022/10/08 05:02:17;;;;;;;2.22;0.85;;;;;;;;;;4491360;28;20676;-59
2022/10/08 05:04:28;;;;;;;1.00;0.70;;;;;;;;;;4490108;28;20473;-58
2022/10/08 05:06:38;;;;;;;2.03;0.90;;;;;;;;;;4489616;28;20368;-59
2022/10/08 05:08:49;;;;;;;1.50;0.70;;;;;;;;;;4491336;28;20034;-59
2022/10/08 05:10:59;;;;;;;1.52;0.77;;;;;;;;;;4490956;28;20764;-59
2022/10/08 05:13:10;;;;;;;2.05;0.90;;;;;;;;;;4489303;28;20050;-59
2022/10/08 05:15:20;;;;;;;1.83;0.85;;;;;;;;;;4490006;28;38549;-59
2022/10/08 05:17:30;;;;;;;1.30;0.73;;;;;;;;;;4488903;28;20037;-59
2022/10/08 05:19:41;;;;;;;1.42;0.82;;;;;;;;;;4489331;28;20034;-59
2022/10/08 05:21:51;;;;;;;2.78;1.00;;;;;;;;;;4493227;28;20043;-59
2022/10/08 05:24:07;;;;;;;1.80;0.75;;;;;;;;;;4492679;28;42021;-59
2022/10/08 05:26:25;;;;;;;1.92;1.10;;;;;;;;;;4494861;28;20648;-59
2022/10/08 05:28:35;;;;;;;1.92;0.90;;;;;;;;;;4494653;28;20073;-59
2022/10/08 05:30:46;;;;;;;2.78;0.98;;;;;;;;;;4493200;28;20152;-59
2022/10/08 05:32:56;;;;;;;1.63;0.80;;;;;;;;;;4491723;28;36442;-59
2022/10/08 05:35:07;;;;;;;1.70;0.80;;;;;;;;;;4501221;28;37450;-59
2022/10/08 05:37:17;;;;;;;1.88;1.17;;;;;;;;;;4493144;28;20046;-58
2022/10/08 05:39:27;;;;;;;1.20;0.80;;;;;;;;;;4492198;28;20022;-59
2022/10/08 05:41:39;;;;;;;1.40;0.90;;;;;;;;;;4491653;28;41555;-59
2022/10/08 05:43:49;;;;;;;1.92;1.08;;;;;;;;;;4494615;28;20040;-59
2022/10/08 05:46:00;;;;;;;2.13;1.00;;;;;;;;;;4491980;28;20040;-59
2022/10/08 05:48:10;;;;;;;1.50;0.95;;;;;;;;;;4492381;28;20042;-59
2022/10/08 05:50:21;;;;;;;1.83;1.02;;;;;;;;;;4491929;28;20030;-59
2022/10/08 05:52:31;;;;;;;1.90;1.02;;;;;;;;;;4490554;28;34871;-59
2022/10/08 05:54:41;;;;;;;2.22;1.10;;;;;;;;;;4492909;28;29798;-59
2022/10/08 05:56:52;;;;;;;2.33;1.02;;;;;;;;;;4491279;28;37010;-59
2022/10/08 05:59:02;;;;;;;2.50;1.23;;;;;;;;;;4491386;28;31052;-59
2022/10/08 06:01:16;;;;;;;2.40;1.00;;;;;;;;;;4492869;28;31279;-59
2022/10/08 06:03:27;;;;;;;1.52;1.08;;;;;;;;;;4493528;28;20692;-59
2022/10/08 06:05:37;;;;;;;1.83;1.35;;;;;;;;;;4492248;28;20338;-60
2022/10/08 06:07:47;;;;;;;1.88;1.00;;;;;;;;;;4493003;28;20030;-59
2022/10/08 06:09:58;;;;;;;1.30;0.90;;;;;;;;;;4492994;28;20583;-59
2022/10/08 06:12:08;;;;;;;1.80;1.10;;;;;;;;;;4492339;28;20117;-59
2022/10/08 06:14:19;;;;;;;2.00;1.40;;;;;;;;;;4491652;28;20089;-58
2022/10/08 06:16:29;;;;;;;2.05;1.08;;;;;;;;;;4492514;28;20045;-59
2022/10/08 06:18:40;;;;;;;1.40;1.05;;;;;;;;;;4492952;28;20070;-58
2022/10/08 06:20:51;;;;;;;2.55;1.30;;;;;;;;;;4492166;28;20053;-58
2022/10/08 06:23:01;;;;;;;1.80;1.20;;;;;;;;;;4492105;28;20070;-59
2022/10/08 06:25:12;;;;;;;2.13;1.10;;;;;;;;;;4490498;28;20039;-59
2022/10/08 06:27:22;;;;;;;1.35;1.02;;;;;;;;;;4491117;28;34954;-59
2022/10/08 06:29:32;;;;;;;1.40;0.90;;;;;;;;;;4492058;28;22908;-64
2022/10/08 06:31:44;;;;;;;1.50;1.10;;;;;;;;;;4492262;28;20050;-59
2022/10/08 06:33:56;;;;;;;3.08;1.17;;;;;;;;;;4491681;28;20125;-62
2022/10/08 06:36:12;;;;;;;2.05;1.17;;;;;;;;;;4501377;28;20046;-59
2022/10/08 06:38:23;;;;;;;2.67;1.20;;;;;;;;;;4500815;28;20030;-58
2022/10/08 06:40:38;;;;;;;2.03;1.17;;;;;;;;;;4493022;28;20042;-58
2022/10/08 06:42:49;;;;;;;1.73;1.10;;;;;;;;;;4500448;28;20045;-57
2022/10/08 06:44:59;;;;;;;2.35;1.33;;;;;;;;;;4482044;28;20038;-58
2022/10/08 06:47:10;;;;;;;2.45;1.17;;;;;;;;;;4492877;28;20061;-58
2022/10/08 06:49:25;;;;;;;2.15;1.00;;;;;;;;;;4492734;28;20066;-58
2022/10/08 06:51:35;;;;;;;1.98;1.10;;;;;;;;;;4491923;28;20066;-58
2022/10/08 06:53:52;;;;;;;2.40;1.42;;;;;;;;;;4492844;28;20625;-58
2022/10/08 06:56:04;;;;;;;;;;;;;;;;;;4493000;28;20045;-58
2022/10/08 06:58:14;;;;;;;3.42;1.80;;;;;;;;;;4494362;28;19917;-58
2022/10/08 07:00:25;;;;;;;2.72;1.63;;;;;;;;;;4491515;28;28382;-58
2022/10/08 07:02:35;;;;;;;2.42;1.30;;;;;;;;;;4493808;28;20217;-57
2022/10/08 07:04:45;;;;;;;1.58;1.13;;;;;;;;;;4491377;28;37040;-58
2022/10/08 07:06:56;;;;;;;1.63;1.10;;;;;;;;;;4491324;28;37655;-58
2022/10/08 07:09:09;;;;;;;1.88;1.20;;;;;;;;;;4500594;28;20072;-58
2022/10/08 07:11:19;;;;;;;3.20;1.27;;;;;;;;;;4494092;28;20045;-57
2022/10/08 07:13:30;;;;;;;1.40;1.30;;;;;;;;;;4493198;28;20038;-58
2022/10/08 07:15:40;;;;;;;2.10;1.20;;;;;;;;;;4492189;28;20093;-58
2022/10/08 07:17:51;;;;;;;1.65;1.13;;;;;;;;;;4490609;28;20037;-58
2022/10/08 07:20:01;;;;;;;2.45;1.10;;;;;;;;;;4491741;28;20030;-58
2022/10/08 07:22:11;;;;;;;2.28;1.10;;;;;;;;;;4491635;28;20038;-58
2022/10/08 07:24:22;;;;;;;1.95;1.10;;;;;;;;;;4491908;28;36805;-58
2022/10/08 07:26:33;;;;;;;1.58;1.13;;;;;;;;;;4490335;28;30651;-58
2022/10/08 07:28:56;;;;;;;1.63;1.05;;;;;;;;;;4490667;28;20034;-58
2022/10/08 07:31:12;;;;;;;1.85;1.10;;;;;;;;;;4491523;28;20026;-58
2022/10/08 07:33:22;;;;;;;1.13;1.00;;;;;;;;;;4493279;28;20587;-58
2022/10/08 07:35:33;;;;;;;1.77;1.13;;;;;;;;;;4500500;28;20037;-58
2022/10/08 07:37:43;;;;;;;1.58;0.98;;;;;;;;;;4491765;28;20050;-58
2022/10/08 07:39:53;;;;;;;1.63;1.30;;;;;;;;;;4492233;28;30606;-58
2022/10/08 07:42:04;;;;;;;2.10;1.10;;;;;;;;;;4490895;28;32425;-58
2022/10/08 07:44:15;;;;;;;1.20;1.05;;;;;;;;;;4491270;28;20089;-58
2022/10/08 07:46:31;;;;;;;1.55;1.08;;;;;;;;;;4500122;28;20044;-59
2022/10/08 07:48:42;;;;;;;1.10;1.00;;;;;;;;;;4490127;28;20142;-58
2022/10/08 07:50:52;;;;;;;1.42;1.20;;;;;;;;;;4491149;28;26252;-59
2022/10/08 07:53:02;;;;;;;1.55;1.20;;;;;;;;;;4491091;28;40776;-59
2022/10/08 07:55:13;;;;;;;1.10;1.00;;;;;;;;;;4489840;28;31925;-59
2022/10/08 07:57:24;;;;;;;2.13;1.30;;;;;;;;;;4489948;28;20041;-59
2022/10/08 07:59:34;;;;;;;2.08;1.30;;;;;;;;;;4492059;28;20153;-59
2022/10/08 08:01:44;;;;;;;2.22;1.48;;;;;;;;;;4489587;28;20404;-59
2022/10/08 08:04:03;;;;;;;3.13;1.63;;;;;;;;;;4491597;28;20049;-58
2022/10/08 08:06:15;;;;;;;2.10;1.35;;;;;;;;;;4491944;28;20065;-59
2022/10/08 08:08:25;;;;;;;1.95;1.40;;;;;;;;;;4489859;28;38755;-59
2022/10/08 08:10:35;;;;;;;2.40;1.40;;;;;;;;;;4490413;28;36190;-59
2022/10/08 08:12:46;;;;;;;2.30;1.45;;;;;;;;;;4491778;28;20077;-60
2022/10/08 08:14:56;;;;;;;1.95;1.40;;;;;;;;;;4491246;28;20088;-60
2022/10/08 08:17:07;;;;;;;2.72;1.40;;;;;;;;;;4489263;28;39471;-59
2022/10/08 08:19:17;;;;;;;1.75;1.50;;;;;;;;;;4496342;28;20108;-60
2022/10/08 08:21:30;;;;;;;1.67;1.38;;;;;;;;;;4491522;28;20071;-60
2022/10/08 08:23:47;;;;;;;2.40;1.52;;;;;;;;;;4490479;28;21056;-59
2022/10/08 08:26:25;;;;;;;2.78;1.60;;;;;;;;;;4491071;28;20038;-60
2022/10/08 08:28:35;;;;;;;1.95;1.30;;;;;;;;;;4488018;28;20056;-60
2022/10/08 08:30:46;;;;;;;2.13;1.50;;;;;;;;;;4492228;28;20045;-59
2022/10/08 08:32:57;;;;;;;2.33;1.40;;;;;;;;;;4489873;28;20725;-60
2022/10/08 08:35:07;;;;;;;2.15;1.58;;;;;;;;;;4492132;28;43415;-59
2022/10/08 08:37:17;;;;;;;4.05;2.92;;;;;;;;;;4489819;28;20353;-59
2022/10/08 08:39:29;;;;;;;3.85;3.08;;;;;;;;;;4489935;28;27285;-60
2022/10/08 08:42:13;;;;;;;5.22;4.10;;;;;;;;;;4491011;28;20605;-59
2022/10/08 08:44:34;;;;;;;2.42;1.83;;;;;;;;;;4491789;28;20038;-59
2022/10/08 08:46:50;;;;;;;2.08;1.70;;;;;;;;;;4489028;28;20038;-60
2022/10/08 08:49:04;;;;;;;3.40;2.60;;;;;;;;;;4490441;28;20045;-60
2022/10/08 08:51:15;;;;;;;3.00;1.90;;;;;;;;;;4493706;28;20060;-59
2022/10/08 08:53:25;;;;;;;2.08;1.52;;;;;;;;;;4490340;28;20034;-59
2022/10/08 08:55:42;;;;;;;2.55;1.50;;;;;;;;;;4493436;28;44212;-60
2022/10/08 08:57:56;;;;;;;2.15;1.48;;;;;;;;;;4502779;28;20034;-61
2022/10/08 09:00:14;;;;;;;2.35;1.70;;;;;;;;;;4492179;28;20042;-59
2022/10/08 09:02:29;;;;;;;2.75;2.10;;;;;;;;;;4497206;28;20799;-59
2022/10/08 09:04:47;;;;;;;2.60;1.90;;;;;;;;;;4492916;28;20610;-59
2022/10/08 09:06:58;;;;;;;3.63;2.20;;;;;;;;;;4497286;28;20503;-60
2022/10/08 09:09:32;;;;;;;2.45;2.08;;;;;;;;;;4493553;28;20616;-59
2022/10/08 09:11:43;;;;;;;3.25;2.33;;;;;;;;;;4495793;28;20045;-59
2022/10/08 09:14:30;;;;;;;3.20;2.28;;;;;;;;;;4492457;28;20026;-59
2022/10/08 09:16:40;;;;;;;4.07;2.63;;;;;;;;;;4496815;28;20042;-59
2022/10/08 09:18:51;;;;;;;4.03;2.53;;;;;;;;;;4492958;28;36087;-59
2022/10/08 09:21:04;;;;;;;3.17;2.58;;;;;;;;;;4484598;28;20879;-59
2022/10/08 09:23:20;;;;;;;2.53;2.28;;;;;;;;;;4479090;28;20508;-60
2022/10/08 09:25:31;;;;;;;3.50;2.72;;;;;;;;;;4494386;28;20471;-60
2022/10/08 09:28:03;;;;;;;4.00;2.65;;;;;;;;;;4493794;28;20631;-59
2022/10/08 09:30:23;;;;;;;3.60;2.50;;;;;;;;;;4494039;28;20066;-59
2022/10/08 09:32:33;;;;;;;3.97;3.08;;;;;;;;;;4493959;28;20826;-59
2022/10/08 09:34:45;;;;;;;3.63;2.70;;;;;;;;;;4492463;28;38481;-59
2022/10/08 09:37:32;;;;;;;3.40;2.60;;;;;;;;;;4494821;28;20030;-59
2022/10/08 09:40:21;;;;;;;3.15;2.20;;;;;;;;;;4491170;28;20058;-59
2022/10/08 09:42:32;;;;;;;3.20;2.63;;;;;;;;;;4491180;28;21023;-60
2022/10/08 09:44:50;;;;;;;3.33;2.83;;;;;;;;;;4492863;28;27324;-60
2022/10/08 09:47:05;;;;;;;2.60;2.30;;;;;;;;;;4491413;28;20077;-60
2022/10/08 09:49:31;;;;;;;3.00;2.28;;;;;;;;;;4483953;28;20096;-59
2022/10/08 09:51:42;;;;;;;4.13;2.50;;;;;;;;;;4508328;28;20271;-59
2022/10/08 09:53:53;;;;;;;2.38;2.15;;;;;;;;;;4493955;28;20197;-59
2022/10/08 09:56:05;;;;;;;3.63;2.65;;;;;;;;;;4496164;28;28282;-59
2022/10/08 09:58:17;;;;;;;3.33;2.60;;;;;;;;;;4506934;28;20116;-59
2022/10/08 10:00:32;;;;;;;3.70;2.40;;;;;;;;;;4468017;28;20780;-60
2022/10/08 10:02:42;;;;;;;3.40;2.40;;;;;;;;;;4495502;28;20161;-60
2022/10/08 10:04:54;;;;;;;4.20;2.60;;;;;;;;;;4492983;28;20037;-59
2022/10/08 10:07:04;;;;;;;3.95;3.13;;;;;;;;;;4478151;28;20593;-61
2022/10/08 10:09:34;;;;;;;3.15;2.50;;;;;;;;;;4479526;28;20465;-59
2022/10/08 10:12:12;;;;;;;3.42;2.38;;;;;;;;;;4493494;28;20034;-59
2022/10/08 10:14:52;;;;;;;2.85;2.22;;;;;;;;;;4490870;28;20057;-61
2022/10/08 10:17:09;;;;;;;2.83;2.42;;;;;;;;;;4496928;28;20057;-59
2022/10/08 10:19:23;;;;;;;3.22;2.40;;;;;;;;;;4479455;28;20041;-59
2022/10/08 10:21:50;;;;;;;3.22;2.03;;;;;;;;;;4497432;28;20034;-59
2022/10/08 10:24:26;;;;;;;2.20;1.67;;;;;;;;;;4477712;28;20639;-59
2022/10/08 10:26:40;;;;;;;2.15;1.90;;;;;;;;;;4491130;28;20039;-59
2022/10/08 10:29:07;;;;;;;2.28;1.75;;;;;;;;;;4492290;28;20022;-59
2022/10/08 10:31:27;;;;;;;3.40;1.90;;;;;;;;;;4496902;28;21035;-59
2022/10/08 10:33:59;;;;;;;2.50;2.00;;;;;;;;;;4493208;28;20633;-59
2022/10/08 10:36:12;;;;;;;2.47;2.00;;;;;;;;;;4491689;28;20052;-59
2022/10/08 10:38:26;;;;;;;2.35;2.03;;;;;;;;;;4495010;28;20038;-58
2022/10/08 10:40:50;;;;;;;3.00;2.00;;;;;;;;;;4507333;28;20485;-59
2022/10/08 10:43:30;;;;;;;3.08;2.13;;;;;;;;;;4491517;28;20113;-60
2022/10/08 10:45:43;;;;;;;2.40;1.98;;;;;;;;;;4444055;28;20054;-59
2022/10/08 10:47:53;;;;;;;2.53;2.13;;;;;;;;;;4496889;28;20571;-59
2022/10/08 10:50:05;;;;;;;3.67;1.80;;;;;;;;;;4491159;28;20022;-58
2022/10/08 10:52:34;;;;;;;1.80;1.40;;;;;;;;;;4493583;28;20042;-58
2022/10/08 10:54:58;;;;;;;2.83;1.50;;;;;;;;;;4494682;28;20488;-59
2022/10/08 10:57:31;;;;;;;1.23;1.02;;;;;;;;;;4491336;28;20740;-58
2022/10/08 10:59:46;;;;;;;1.90;1.10;;;;;;;;;;4493139;28;20041;-58
2022/10/08 11:02:20;;;;;;;1.50;1.40;;;;;;;;;;4500385;28;20692;-58
2022/10/08 11:04:54;;;;;;;1.73;1.10;;;;;;;;;;4491457;28;20634;-59
2022/10/08 11:07:40;;;;;;;2.22;1.10;;;;;;;;;;4492478;28;20034;-60
2022/10/08 11:10:15;;;;;;;1.85;1.00;;;;;;;;;;4489820;28;20057;-58
2022/10/08 11:12:41;;;;;;;2.10;0.90;;;;;;;;;;4490712;28;20046;-58
2022/10/08 11:15:00;;;;;;;1.50;1.10;;;;;;;;;;4493537;28;20036;-60
2022/10/08 11:17:29;;;;;;;2.17;1.05;;;;;;;;;;4493534;28;20034;-58
2022/10/08 11:19:51;;;;;;;1.13;0.90;;;;;;;;;;4492438;28;21478;-58
2022/10/08 11:22:23;;;;;;;2.15;1.25;;;;;;;;;;4496537;28;20042;-58
2022/10/08 11:24:52;;;;;;;3.40;1.70;;;;;;;;;;4495192;28;20074;-58
2022/10/08 11:27:31;;;;;;;6.25;3.22;;;;;;;;;;4496829;28;20061;-58
2022/10/08 11:30:32;;;;;;;9.07;4.13;;;;;;;;;;4482529;28;20061;-58
2022/10/08 11:32:44;;;;;;;8.82;4.38;;;;;;;;;;4404529;29;20120;-58
2022/10/08 11:35:04;;;;;;;14.57;6.00;;;;;;;;;;4459806;28;20057;-58
2022/10/08 11:37:35;;;;;;;8.63;3.80;;;;;;;;;;4499564;28;20029;-59
2022/10/08 11:40:06;;;;;;;4.10;1.75;;;;;;;;;;4492734;28;20034;-58
2022/10/08 11:42:24;;;;;;;10.35;4.00;;;;;;;;;;4496376;28;20575;-59
2022/10/08 11:44:36;;;;;;;10.48;3.42;;;;;;;;;;4494929;28;20039;-60
2022/10/08 11:46:46;;;;;;;27.63;8.82;;;;;;;;;;4491899;28;20064;-61
2022/10/08 11:49:15;;;;;;;6.28;3.75;;;;;;;;;;4491824;28;20044;-58
2022/10/08 11:51:28;;;;;;;1.17;0.90;;;;;;;;;;4491259;28;20034;-57
2022/10/08 11:53:38;;;;;;;1.23;0.80;;;;;;;;;;4490735;28;20163;-60
2022/10/08 11:55:56;;;;;;;1.35;0.80;;;;;;;;;;4490180;28;39690;-58
2022/10/08 11:58:20;;;;;;;2.15;0.82;;;;;;;;;;4490497;28;20037;-58
2022/10/08 12:00:32;;;;;;;0.80;0.70;;;;;;;;;;4490787;28;20136;-58
2022/10/08 12:02:42;;;;;;;1.15;0.90;;;;;;;;;;4492049;28;20549;-58
2022/10/08 12:04:55;;;;;;;1.25;0.80;;;;;;;;;;4492241;28;20313;-59
2022/10/08 12:07:19;;;;;;;0.77;0.75;;;;;;;;;;4500132;28;20073;-59
2022/10/08 12:10:04;;;;;;;1.70;0.80;;;;;;;;;;4490666;28;20030;-58
2022/10/08 12:12:16;;;;;;;0.90;0.70;;;;;;;;;;4491568;28;20042;-58
2022/10/08 12:14:29;;;;;;;1.50;0.70;;;;;;;;;;4489776;28;38245;-58
2022/10/08 12:16:57;;;;;;;0.85;0.60;;;;;;;;;;4492751;28;20095;-59
2022/10/08 12:19:37;;;;;;;1.20;0.75;;;;;;;;;;4491104;28;20037;-58
2022/10/08 12:21:49;;;;;;;1.50;0.70;;;;;;;;;;4490201;28;20038;-58
2022/10/08 12:23:59;;;;;;;2.20;0.80;;;;;;;;;;4489095;28;20038;-58
2022/10/08 12:26:12;;;;;;;2.78;0.80;;;;;;;;;;4491654;28;34387;-58
2022/10/08 12:28:22;;;;;;;0.85;0.60;;;;;;;;;;4500047;28;21061;-59
2022/10/08 12:30:52;;;;;;;1.52;0.70;;;;;;;;;;4495117;28;20064;-58
2022/10/08 12:33:03;;;;;;;1.60;0.88;;;;;;;;;;4498250;28;20543;-58
2022/10/08 12:35:45;;;;;;;1.50;0.70;;;;;;;;;;4494456;28;20382;-58
2022/10/08 12:38:08;;;;;;;1.40;0.70;;;;;;;;;;4492337;28;20088;-59
2022/10/08 12:40:40;;;;;;;0.73;0.70;;;;;;;;;;4494213;28;21275;-59
2022/10/08 12:43:01;;;;;;;1.10;0.77;;;;;;;;;;4494778;28;20038;-59
2022/10/08 12:45:22;;;;;;;0.88;0.60;;;;;;;;;;4495136;28;20038;-59
2022/10/08 12:47:41;;;;;;;1.55;0.65;;;;;;;;;;4493999;28;20045;-59
2022/10/08 12:50:29;;;;;;;0.80;0.70;;;;;;;;;;4494615;28;20038;-59
2022/10/08 12:52:40;;;;;;;1.25;0.65;;;;;;;;;;4494103;28;20054;-58
2022/10/08 12:54:53;;;;;;;0.65;0.50;;;;;;;;;;4495315;28;23527;-59
2022/10/08 12:57:09;;;;;;;0.70;0.30;;;;;;;;;;4501468;28;20041;-59
2022/10/08 12:59:22;;;;;;;0.40;0.32;;;;;;;;;;4485796;28;20026;-59
2022/10/08 13:01:33;;;;;;;1.02;0.50;;;;;;;;;;4494796;28;20034;-58
2022/10/08 13:03:43;;;;;;;1.00;0.40;;;;;;;;;;4501699;28;37720;-58
2022/10/08 13:05:57;;;;;;;0.82;0.30;;;;;;;;;;4494262;28;20038;-59
2022/10/08 13:08:17;;;;;;;0.65;0.35;;;;;;;;;;4494604;28;21232;-59
2022/10/08 13:10:28;;;;;;;1.10;0.40;;;;;;;;;;4495118;28;20692;-59
2022/10/08 13:12:40;;;;;;;0.52;0.28;;;;;;;;;;4498281;28;20112;-59
2022/10/08 13:14:59;;;;;;;0.45;0.30;;;;;;;;;;4494595;28;20042;-59
2022/10/08 13:17:30;;;;;;;0.65;0.10;;;;;;;;;;4501754;28;20363;-60
2022/10/08 13:19:41;;;;;;;0.50;0.30;;;;;;;;;;4498409;28;20092;-59
2022/10/08 13:21:59;;;;;;;0.70;0.40;;;;;;;;;;4494052;28;20089;-59
2022/10/08 13:24:10;;;;;;;0.45;0.30;;;;;;;;;;4502482;28;20042;-59
2022/10/08 13:26:43;;;;;;;1.30;0.38;;;;;;;;;;4493230;28;20038;-60
2022/10/08 13:29:15;;;;;;;0.88;0.30;;;;;;;;;;4493883;28;20031;-58
2022/10/08 13:31:26;;;;;;;1.33;0.30;;;;;;;;;;4493285;28;20076;-58
2022/10/08 13:33:37;;;;;;;0.30;0.30;;;;;;;;;;4493289;28;30412;-59